Time;durP1;ratioP1;P1;durP2;ratioP2;P2;SDS_P1;SDS_P2;PMS_P1;PMS_P2;Temp;Humidity;BMP_temperature;BMP_pressure;BME280_temperature;BME280_humidity;BME280_pressure;Samples;Min_cycle;Max_cycle;Signal;HPM_P1;HPM_P2
2022/11/23 00:04:02;;;;;;;27.80;19.65;;;;;;;5.92;89.15;96296.63;10231037;28;20078;-57
2022/11/23 00:09:02;;;;;;;22.88;16.20;;;;;;;5.95;89.10;96308.63;10216438;28;20589;-57
2022/11/23 00:14:02;;;;;;;23.42;15.27;;;;;;;6.01;88.04;96287.16;10215908;28;20085;-57
2022/11/23 00:19:01;;;;;;;21.85;13.73;;;;;;;6.07;88.40;96284.50;10215436;28;20063;-57
2022/11/23 00:24:00;;;;;;;17.70;12.18;;;;;;;6.14;88.38;96283.59;10215751;28;20507;-56
2022/11/23 00:28:59;;;;;;;23.00;13.27;;;;;;;6.18;87.92;96280.16;10230041;28;20070;-57
2022/11/23 00:33:58;;;;;;;20.55;14.07;;;;;;;6.25;87.01;96299.84;10215327;28;20042;-57
2022/11/23 00:38:57;;;;;;;14.13;9.27;;;;;;;6.28;87.57;96284.38;10214710;28;20034;-56
2022/11/23 00:43:56;;;;;;;15.02;10.18;;;;;;;6.33;87.51;96295.50;10229720;28;20094;-57
2022/11/23 00:48:56;;;;;;;15.05;9.63;;;;;;;6.40;87.13;96304.88;10214445;28;20027;-57
2022/11/23 00:53:56;;;;;;;17.95;11.02;;;;;;;6.47;86.39;96309.97;10214435;28;20085;-56
2022/11/23 00:58:57;;;;;;;18.77;11.52;;;;;;;6.50;86.87;96302.22;10213978;28;20066;-57
2022/11/23 01:03:57;;;;;;;21.75;14.57;;;;;;;6.60;86.76;96311.59;10214138;28;20086;-57
2022/11/23 01:08:59;;;;;;;20.15;12.80;;;;;;;6.65;85.91;96299.50;10213407;28;20066;-57
2022/11/23 01:13:58;;;;;;;17.10;11.32;;;;;;;6.68;86.09;96306.34;10213556;28;20066;-57
2022/11/23 01:19:00;;;;;;;15.20;9.07;;;;;;;6.76;86.17;96299.41;10213176;28;20030;-57
2022/11/23 01:23:59;;;;;;;12.90;7.47;;;;;;;6.80;86.07;96283.91;10212931;28;20077;-57
2022/11/23 01:28:58;;;;;;;16.15;8.75;;;;;;;6.92;85.38;96318.19;10214406;28;20071;-57
2022/11/23 01:33:59;;;;;;;12.35;8.02;;;;;;;6.95;84.98;96323.31;10212564;28;20041;-59
2022/11/23 01:39:00;;;;;;;13.68;7.95;;;;;;;6.91;85.75;96311.31;10212226;28;20067;-56
2022/11/23 01:44:00;;;;;;;14.25;8.10;;;;;;;6.89;85.58;96311.34;10211682;28;20085;-56
2022/11/23 01:49:06;;;;;;;15.43;10.52;;;;;;;6.88;86.05;96296.72;10227470;28;20081;-56
2022/11/23 01:54:10;;;;;;;79.10;32.58;;;;;;;6.92;85.26;96308.72;10212122;28;20066;-56
2022/11/23 01:59:15;;;;;;;43.15;21.08;;;;;;;6.94;85.61;96311.28;10211901;28;20085;-56
2022/11/23 02:04:21;;;;;;;89.38;40.97;;;;;;;6.96;85.45;96322.41;10211531;28;20086;-56
2022/11/23 02:09:21;;;;;;;28.42;15.88;;;;;;;6.91;85.66;96295.81;10211457;28;20070;-56
2022/11/23 02:14:20;;;;;;;23.10;14.80;;;;;;;6.88;86.42;96288.13;10211716;28;20516;-56
2022/11/23 02:19:35;;;;;;;22.08;13.80;;;;;;;6.85;85.80;96298.50;10211623;28;20085;-56
2022/11/23 02:24:41;;;;;;;44.00;23.55;;;;;;;6.65;85.07;96294.34;10211064;28;20070;-57
2022/11/23 02:29:40;;;;;;;17.65;11.68;;;;;;;6.84;84.32;96276.97;10210785;28;20058;-57
2022/11/23 02:34:39;;;;;;;14.40;9.70;;;;;;;6.96;84.87;96286.31;10210591;28;20074;-57
2022/11/23 02:39:44;;;;;;;10.82;6.38;;;;;;;7.15;85.61;96295.59;10210385;28;20118;-57
2022/11/23 02:44:55;;;;;;;4.75;2.30;;;;;;;7.43;89.37;96295.31;10210802;28;20497;-57
2022/11/23 02:49:54;;;;;;;4.82;2.20;;;;;;;7.87;90.71;96304.19;10211360;28;20070;-55
2022/11/23 02:54:53;;;;;;;3.78;2.38;;;;;;;8.26;91.64;96299.31;10210219;28;20114;-57
2022/11/23 02:59:52;;;;;;;5.90;2.47;;;;;;;8.60;91.59;96294.47;10216718;28;20034;-58
2022/11/23 03:04:51;;;;;;;4.90;2.50;;;;;;;8.84;91.72;96276.81;10218313;28;20121;-57
2022/11/23 03:09:50;;;;;;;4.45;2.83;;;;;;;9.05;91.56;96260.91;10218490;28;20035;-57
2022/11/23 03:14:49;;;;;;;3.20;2.60;;;;;;;9.08;91.80;96232.38;10218034;28;20058;-57
2022/11/23 03:19:48;;;;;;;4.07;2.40;;;;;;;8.96;92.34;96198.13;10217269;28;20114;-57
2022/11/23 03:24:46;;;;;;;4.97;2.67;;;;;;;8.94;92.12;96195.56;10217939;28;20053;-57
2022/11/23 03:29:45;;;;;;;4.82;2.38;;;;;;;8.97;91.87;96192.06;10232879;28;20070;-58
2022/11/23 03:34:44;;;;;;;3.63;2.20;;;;;;;9.06;90.98;96187.56;10217412;28;20035;-59
2022/11/23 03:39:43;;;;;;;5.25;3.17;;;;;;;9.15;90.26;96179.59;10231875;28;20141;-57
2022/11/23 03:44:42;;;;;;;4.82;3.50;;;;;;;9.27;89.50;96182.84;10216661;28;20047;-56
2022/11/23 03:49:41;;;;;;;4.22;3.08;;;;;;;9.37;88.27;96179.19;10216988;28;20082;-56
2022/11/23 03:54:40;;;;;;;3.78;2.55;;;;;;;9.44;87.77;96166.97;10216494;28;20062;-56
2022/11/23 03:59:39;;;;;;;2.97;2.45;;;;;;;9.48;87.00;96190.16;10216283;28;20106;-56
2022/11/23 04:04:38;;;;;;;2.17;2.00;;;;;;;9.55;86.47;96201.25;10215819;28;20362;-56
2022/11/23 04:09:37;;;;;;;4.05;2.33;;;;;;;9.63;85.65;96195.88;10215465;28;20038;-56
2022/11/23 04:14:36;;;;;;;4.15;2.20;;;;;;;9.66;84.74;96169.94;10215791;28;20110;-56
2022/11/23 04:19:35;;;;;;;2.80;2.20;;;;;;;9.76;84.08;96182.63;10215756;28;20041;-56
2022/11/23 04:24:34;;;;;;;3.97;2.60;;;;;;;9.86;84.21;96191.03;10215087;28;20114;-56
2022/11/23 04:29:33;;;;;;;2.65;1.98;;;;;;;9.96;83.09;96199.47;10215283;28;20027;-56
2022/11/23 04:34:32;;;;;;;4.85;3.05;;;;;;;9.96;82.52;96209.84;10215213;28;20037;-56
2022/11/23 04:39:30;;;;;;;2.90;2.53;;;;;;;9.99;82.22;96214.94;10215071;28;20039;-56
2022/11/23 04:44:29;;;;;;;6.35;2.70;;;;;;;9.98;82.30;96221.00;10211606;28;20034;-56
2022/11/23 04:49:28;;;;;;;3.10;2.80;;;;;;;9.94;82.71;96232.34;10211948;28;20456;-56
2022/11/23 04:54:27;;;;;;;3.75;2.88;;;;;;;10.02;82.38;96233.00;10212909;28;20074;-56
2022/11/23 04:59:26;;;;;;;5.47;3.53;;;;;;;9.98;82.19;96240.00;10211652;28;20053;-58
2022/11/23 05:04:25;;;;;;;6.32;4.15;;;;;;;9.97;82.49;96232.25;10212979;28;20063;-57
2022/11/23 05:09:24;;;;;;;7.53;4.88;;;;;;;9.98;81.36;96249.53;10212302;28;20062;-57
2022/11/23 05:14:23;;;;;;;7.43;5.10;;;;;;;9.95;81.22;96276.31;10212492;28;20114;-57
2022/11/23 05:19:22;;;;;;;5.50;2.75;;;;;;;9.81;82.45;96280.97;10197368;28;20027;-57
2022/11/23 05:24:21;;;;;;;6.20;3.92;;;;;;;9.62;83.63;96301.22;10172484;28;20651;-55
2022/11/23 05:29:20;;;;;;;10.75;6.07;;;;;;;9.31;84.81;96304.44;10171349;28;20467;-56
2022/11/23 05:34:19;;;;;;;6.45;3.78;;;;;;;9.23;84.70;96305.41;10172313;28;20484;-56
2022/11/23 05:39:18;;;;;;;10.43;5.82;;;;;;;9.19;85.48;96306.38;10171430;28;20101;-56
2022/11/23 05:44:17;;;;;;;7.85;5.68;;;;;;;9.24;85.56;96318.34;10171089;28;20085;-56
2022/11/23 05:49:16;;;;;;;16.48;11.93;;;;;;;9.33;85.43;96307.84;10170861;28;20062;-56
2022/11/23 05:54:15;;;;;;;12.57;5.10;;;;;;;9.41;84.96;96305.09;10189531;28;20031;-56
2022/11/23 05:59:14;;;;;;;12.95;6.47;;;;;;;9.54;85.06;96295.38;10210260;28;20050;-56
2022/11/23 06:04:13;;;;;;;19.92;12.55;;;;;;;9.54;84.77;96290.19;10210152;28;20093;-56
2022/11/23 06:09:12;;;;;;;;;;;;;;;9.56;85.57;96285.84;10217576;28;20075;-56
2022/11/23 06:14:11;;;;;;;18.08;10.77;;;;;;;9.63;85.50;96271.88;10205397;28;19916;-56
2022/11/23 06:19:11;;;;;;;18.33;13.13;;;;;;;9.47;85.91;96286.03;10209516;28;20447;-56
2022/11/23 06:24:10;;;;;;;21.50;13.73;;;;;;;9.28;86.05;96288.09;10208829;28;20405;-56
2022/11/23 06:29:09;;;;;;;20.98;13.95;;;;;;;9.31;86.12;96293.22;10205653;28;20042;-56
2022/11/23 06:34:07;;;;;;;21.33;12.40;;;;;;;9.31;85.69;96298.41;10183571;28;20110;-56
2022/11/23 06:39:06;;;;;;;21.45;12.93;;;;;;;9.25;86.52;96294.16;10200661;28;20049;-56
2022/11/23 06:44:06;;;;;;;65.80;39.97;;;;;;;9.31;86.50;96303.59;10209601;28;20042;-56
2022/11/23 06:49:05;;;;;;;49.00;29.65;;;;;;;9.34;86.33;96306.94;10210703;28;20093;-56
2022/11/23 06:54:04;;;;;;;23.63;13.73;;;;;;;9.28;86.46;96293.25;10210648;28;20067;-56
2022/11/23 06:59:03;;;;;;;18.55;12.65;;;;;;;9.13;87.43;96296.97;10209238;28;20034;-56
2022/11/23 07:04:02;;;;;;;17.80;11.10;;;;;;;9.20;87.19;96297.72;10228298;28;20081;-56
2022/11/23 07:09:01;;;;;;;63.20;28.83;;;;;;;9.29;87.39;96301.00;10197705;28;20533;-56
2022/11/23 07:14:00;;;;;;;18.92;10.48;;;;;;;9.28;87.35;96309.69;10170251;28;20071;-56
2022/11/23 07:18:59;;;;;;;23.60;15.68;;;;;;;9.19;88.23;96303.78;10170065;28;20027;-56
2022/11/23 07:23:58;;;;;;;12.88;7.95;;;;;;;9.45;87.26;96306.75;10202594;28;20094;-56
2022/11/23 07:28:57;;;;;;;15.15;11.82;;;;;;;9.64;87.86;96309.81;10209619;28;20027;-56
2022/11/23 07:33:56;;;;;;;17.75;13.48;;;;;;;9.86;86.92;96311.97;10176196;28;20031;-55
2022/11/23 07:38:55;;;;;;;14.15;10.32;;;;;;;9.86;86.72;96307.63;10194972;28;20035;-56
2022/11/23 07:43:54;;;;;;;24.58;12.60;;;;;;;10.07;86.21;96300.28;10212304;28;20515;-56
2022/11/23 07:48:58;;;;;;;18.52;12.80;;;;;;;10.33;85.52;96302.25;10216746;28;20019;-56
2022/11/23 07:53:57;;;;;;;18.60;13.77;;;;;;;10.63;85.70;96300.69;10216764;28;20061;-56
2022/11/23 07:58:56;;;;;;;21.38;15.25;;;;;;;10.71;83.65;96308.28;10216291;28;20062;-56
2022/11/23 08:03:55;;;;;;;20.42;15.90;;;;;;;10.66;82.95;96311.00;10216266;28;20073;-56
2022/11/23 08:08:54;;;;;;;21.15;16.42;;;;;;;10.80;82.93;96302.88;10204490;28;20078;-56
2022/11/23 08:13:53;;;;;;;23.05;14.65;;;;;;;11.05;82.62;96297.91;10176545;28;20083;-56
2022/11/23 08:18:52;;;;;;;18.15;13.00;;;;;;;11.33;82.03;96315.38;10176625;28;20082;-56
2022/11/23 08:23:51;;;;;;;20.50;15.75;;;;;;;11.59;81.30;96320.69;10176099;28;20042;-56
2022/11/23 08:28:50;;;;;;;13.82;9.68;;;;;;;11.81;80.67;96301.91;10175644;28;20030;-56
2022/11/23 08:33:49;;;;;;;13.20;8.48;;;;;;;11.72;78.51;96300.41;10207281;28;20113;-56
2022/11/23 08:38:50;;;;;;;12.60;9.18;;;;;;;11.63;78.55;96295.47;10205545;28;20042;-56
2022/11/23 08:43:50;;;;;;;11.73;8.10;;;;;;;11.66;78.54;96316.16;10214952;28;20601;-56
2022/11/23 08:48:49;;;;;;;15.55;11.32;;;;;;;11.50;78.54;96305.34;10214713;28;20493;-56
2022/11/23 08:53:48;;;;;;;13.07;9.63;;;;;;;11.46;78.43;96304.59;10212630;28;20026;-56
2022/11/23 08:58:48;;;;;;;13.68;9.80;;;;;;;11.47;78.60;96308.03;10214415;28;20097;-56
2022/11/23 09:03:47;;;;;;;13.15;8.95;;;;;;;11.54;78.69;96311.31;10213613;28;20082;-56
2022/11/23 09:08:46;;;;;;;13.57;7.43;;;;;;;11.65;79.05;96309.28;10213553;28;20031;-56
2022/11/23 09:13:45;;;;;;;8.57;6.38;;;;;;;11.80;78.64;96308.81;10213686;28;20416;-56
2022/11/23 09:18:44;;;;;;;9.45;6.03;;;;;;;11.89;78.39;96290.34;10213082;28;20041;-56
2022/11/23 09:23:43;;;;;;;22.75;6.55;;;;;;;11.91;77.73;96282.53;10213211;28;20121;-56
2022/11/23 09:28:42;;;;;;;8.23;6.25;;;;;;;11.84;77.33;96284.44;10213645;28;20137;-56
2022/11/23 09:33:40;;;;;;;11.18;5.68;;;;;;;11.87;76.51;96281.75;10213615;28;20045;-56
2022/11/23 09:38:39;;;;;;;8.00;4.78;;;;;;;12.10;76.28;96272.41;10212318;28;20424;-56
2022/11/23 09:43:55;;;;;;;13.00;5.63;;;;;;;12.20;75.40;96259.97;10213178;28;20035;-56
2022/11/23 09:48:54;;;;;;;7.30;4.85;;;;;;;12.33;74.38;96256.13;10211766;28;20069;-56
2022/11/23 09:54:03;;;;;;;10.15;4.93;;;;;;;12.52;73.96;96251.19;10182633;28;20023;-56
2022/11/23 09:59:10;;;;;;;9.35;4.57;;;;;;;12.68;71.97;96251.53;10172278;28;20063;-56
2022/11/23 10:04:18;;;;;;;5.32;3.90;;;;;;;12.73;68.95;96250.47;10183589;28;20496;-56
2022/11/23 10:09:37;;;;;;;6.70;3.28;;;;;;;12.91;68.10;96249.00;10211196;28;20078;-56
2022/11/23 10:14:42;;;;;;;;;;;;;;;13.14;66.40;96240.38;10211871;28;20077;-56
2022/11/23 10:20:03;;;;;;;3.95;2.60;;;;;;;13.31;64.38;96231.09;10210039;28;19964;-56
2022/11/23 10:25:13;;;;;;;5.65;2.72;;;;;;;13.35;63.77;96224.84;10211697;28;20074;-56
2022/11/23 10:30:14;;;;;;;4.15;2.40;;;;;;;13.51;61.23;96228.59;10211462;28;20489;-56
2022/11/23 10:35:17;;;;;;;6.80;2.78;;;;;;;13.58;61.35;96234.47;10211744;28;20478;-56
2022/11/23 10:40:20;;;;;;;5.07;2.03;;;;;;;13.65;60.08;96222.06;10249816;28;20077;-56
2022/11/23 10:45:25;;;;;;;6.38;3.28;;;;;;;13.73;59.69;96225.25;10241674;28;20063;-56
2022/11/23 10:50:25;;;;;;;5.65;3.63;;;;;;;13.76;58.49;96235.53;10173494;28;20062;-56
2022/11/23 10:55:30;;;;;;;7.75;3.10;;;;;;;13.90;58.02;96229.81;10211089;28;20069;-56
2022/11/23 11:00:29;;;;;;;4.25;2.67;;;;;;;14.05;57.04;96218.75;10245730;28;20751;-56
2022/11/23 11:05:48;;;;;;;5.90;2.65;;;;;;;14.37;56.59;96220.09;10228900;28;20489;-56
2022/11/23 11:10:56;;;;;;;3.97;3.07;;;;;;;14.57;54.91;96210.59;10213245;28;20062;-56
2022/11/23 11:16:01;;;;;;;5.70;3.30;;;;;;;14.83;56.20;96223.44;10212793;28;20520;-56
2022/11/23 11:21:06;;;;;;;6.82;3.55;;;;;;;15.14;55.79;96216.03;10219749;28;20073;-56
2022/11/23 11:26:34;;;;;;;10.35;6.18;;;;;;;15.40;54.38;96209.66;10220411;28;20081;-56
2022/11/23 11:31:46;;;;;;;10.07;4.15;;;;;;;15.51;53.68;96202.19;10219743;28;20074;-56
2022/11/23 11:37:10;;;;;;;6.35;3.17;;;;;;;15.83;53.11;96197.25;10219734;28;20085;-56
2022/11/23 11:42:19;;;;;;;5.05;2.60;;;;;;;16.04;51.97;96193.63;10214302;28;20074;-56
2022/11/23 11:47:36;;;;;;;5.55;3.67;;;;;;;15.91;50.53;96187.28;10215171;28;20082;-56
2022/11/23 11:52:39;;;;;;;9.38;5.43;;;;;;;15.60;50.47;96183.47;10212568;28;20473;-56
2022/11/23 11:57:44;;;;;;;6.43;3.53;;;;;;;15.31;50.42;96182.16;10175800;28;20521;-56
2022/11/23 12:03:07;;;;;;;6.45;4.38;;;;;;;15.25;51.24;96180.69;10172857;28;20126;-56
2022/11/23 12:08:06;;;;;;;3.88;2.90;;;;;;;15.25;51.43;96187.69;10190306;28;20086;-56
2022/11/23 12:13:11;;;;;;;;;;;;;;;15.18;51.56;96191.47;10176444;28;20031;-56
2022/11/23 12:18:27;;;;;;;8.00;3.95;;;;;;;15.19;51.89;96175.72;10175951;28;19984;-57
2022/11/23 12:24:07;;;;;;;9.93;5.78;;;;;;;15.22;52.28;96180.81;10176272;28;20091;-57
2022/11/23 12:29:09;;;;;;;6.88;4.47;;;;;;;15.03;53.01;96182.53;10167228;28;20501;-57
2022/11/23 12:34:22;;;;;;;4.53;2.80;;;;;;;14.86;52.66;96187.66;10175638;28;20498;-56
2022/11/23 12:39:49;;;;;;;7.47;2.95;;;;;;;14.76;52.06;96182.00;10174838;28;20070;-56
2022/11/23 12:45:12;;;;;;;4.95;2.75;;;;;;;14.59;51.55;96183.53;10175279;28;20513;-56
2022/11/23 12:50:31;;;;;;;4.78;2.75;;;;;;;14.61;51.41;96183.44;10176283;28;20059;-56
2022/11/23 12:55:49;;;;;;;4.35;2.50;;;;;;;14.77;51.32;96189.72;10173394;28;20148;-56
2022/11/23 13:01:05;;;;;;;4.85;2.95;;;;;;;14.96;50.63;96191.56;10174721;28;20102;-57
2022/11/23 13:06:33;;;;;;;3.85;2.70;;;;;;;15.29;49.43;96190.97;10195926;28;20480;-57
2022/11/23 13:11:42;;;;;;;3.72;2.53;;;;;;;15.58;48.86;96187.06;10208962;28;20062;-57
2022/11/23 13:16:53;;;;;;;3.27;2.27;;;;;;;15.64;48.22;96181.53;10206629;28;20085;-57
2022/11/23 13:21:53;;;;;;;6.25;2.53;;;;;;;15.60;48.55;96188.69;10206933;28;20066;-58
2022/11/23 13:27:12;;;;;;;4.07;2.03;;;;;;;15.48;48.17;96197.06;10211018;28;20081;-56
2022/11/23 13:32:32;;;;;;;5.95;3.15;;;;;;;15.30;48.21;96218.84;10208675;28;20075;-57
2022/11/23 13:37:59;;;;;;;6.25;3.28;;;;;;;15.08;48.08;96209.31;10207386;28;20062;-58
2022/11/23 13:43:29;;;;;;;5.75;2.53;;;;;;;14.97;48.65;96219.41;10212177;28;20074;-58
2022/11/23 13:48:28;;;;;;;5.05;2.40;;;;;;;14.72;47.92;96232.63;10210482;28;20062;-57
2022/11/23 13:53:29;;;;;;;;;;;;;;;14.57;49.09;96236.72;10212452;28;20042;-57
2022/11/23 13:58:37;;;;;;;3.75;2.00;;;;;;;14.37;50.21;96246.19;10208666;28;19961;-57
2022/11/23 14:03:49;;;;;;;4.85;1.83;;;;;;;14.16;50.01;96253.09;10214276;28;20082;-57
2022/11/23 14:08:58;;;;;;;13.43;7.85;;;;;;;13.85;51.19;96253.44;10214778;28;21170;-58
2022/11/23 14:14:02;;;;;;;9.57;5.25;;;;;;;13.60;52.01;96263.09;10214087;28;20070;-58
2022/11/23 14:19:31;;;;;;;10.20;5.22;;;;;;;13.45;52.73;96260.13;10213746;28;20078;-58
2022/11/23 14:24:45;;;;;;;13.18;8.82;;;;;;;13.26;53.03;96265.13;10213550;28;20074;-57
2022/11/23 14:30:05;;;;;;;17.67;11.13;;;;;;;13.15;52.79;96275.94;10213272;28;20066;-56
2022/11/23 14:35:22;;;;;;;22.08;12.60;;;;;;;13.02;52.89;96265.97;10213174;28;20082;-56
2022/11/23 14:40:46;;;;;;;15.05;9.52;;;;;;;12.81;53.26;96275.38;10203198;28;20078;-56
2022/11/23 14:45:46;;;;;;;13.85;9.13;;;;;;;12.65;53.42;96267.22;10193411;28;20071;-56
2022/11/23 14:50:54;;;;;;;38.38;29.48;;;;;;;12.51;53.49;96272.91;10202434;28;20070;-56
2022/11/23 14:55:54;;;;;;;27.48;20.38;;;;;;;12.36;53.58;96269.03;10210625;28;20089;-56
2022/11/23 15:00:58;;;;;;;12.70;5.75;;;;;;;12.26;53.92;96278.84;10208286;28;20499;-57
2022/11/23 15:06:12;;;;;;;12.85;5.72;;;;;;;12.14;54.12;96286.19;10208256;28;20543;-57
2022/11/23 15:11:15;;;;;;;12.18;6.40;;;;;;;12.01;54.14;96283.09;10208756;28;20062;-56
2022/11/23 15:16:18;;;;;;;14.60;8.05;;;;;;;11.88;54.70;96286.06;10200334;28;20081;-56
2022/11/23 15:21:20;;;;;;;12.63;7.60;;;;;;;11.76;54.91;96286.44;10205054;28;20137;-56
2022/11/23 15:26:25;;;;;;;14.75;8.40;;;;;;;11.66;55.28;96298.81;10205217;28;20088;-57
2022/11/23 15:31:29;;;;;;;16.58;9.77;;;;;;;11.56;55.52;96299.16;10208123;28;20074;-56
2022/11/23 15:36:30;;;;;;;42.38;27.15;;;;;;;11.42;56.11;96299.53;10202032;28;20085;-56
2022/11/23 15:41:30;;;;;;;32.22;19.63;;;;;;;11.29;57.36;96296.44;10197766;28;20485;-56
2022/11/23 15:46:36;;;;;;;33.72;17.55;;;;;;;11.11;57.50;96302.13;10198267;28;20551;-58
2022/11/23 15:51:40;;;;;;;24.80;15.00;;;;;;;10.95;58.61;96304.25;10206733;28;20387;-57
2022/11/23 15:56:44;;;;;;;15.43;8.45;;;;;;;10.80;58.92;96308.91;10207678;28;20066;-57
2022/11/23 16:01:43;;;;;;;21.63;12.07;;;;;;;10.72;60.05;96307.38;10205857;28;20070;-57
2022/11/23 16:06:46;;;;;;;79.15;56.80;;;;;;;10.45;62.35;96320.16;10213502;28;20090;-57
2022/11/23 16:11:45;;;;;;;61.33;50.78;;;;;;;10.25;63.01;96310.22;10214505;28;20070;-57
2022/11/23 16:16:47;;;;;;;26.10;17.52;;;;;;;10.17;62.91;96315.59;10211305;28;20082;-56
2022/11/23 16:21:46;;;;;;;399.17;192.35;;;;;;;10.04;63.37;96319.34;10213983;28;20070;-57
2022/11/23 16:26:45;;;;;;;85.72;51.17;;;;;;;9.87;64.39;96322.28;10213988;28;20037;-56
2022/11/23 16:31:52;;;;;;;104.85;61.22;;;;;;;9.75;65.27;96326.00;10213678;28;20074;-56
2022/11/23 16:36:54;;;;;;;74.13;48.55;;;;;;;9.52;68.06;96339.41;10213023;28;20078;-57
2022/11/23 16:41:53;;;;;;;101.03;62.53;;;;;;;9.34;68.89;96343.19;10210037;28;20093;-57
2022/11/23 16:46:52;;;;;;;;;;;;;;;9.02;73.31;96353.25;10213721;28;20444;-56
2022/11/23 16:51:54;;;;;;;46.05;27.92;;;;;;;8.82;75.14;96351.84;10210976;28;19996;-58
2022/11/23 16:56:53;;;;;;;41.03;26.60;;;;;;;8.45;78.20;96367.09;10201764;28;20505;-57
2022/11/23 17:01:52;;;;;;;52.35;35.60;;;;;;;8.34;78.84;96375.03;10212659;28;20051;-57
2022/11/23 17:06:51;;;;;;;16.33;9.30;;;;;;;8.45;78.62;96373.13;10212644;28;20034;-57
2022/11/23 17:11:50;;;;;;;44.17;31.88;;;;;;;8.48;78.51;96373.09;10208053;28;20145;-57
2022/11/23 17:16:49;;;;;;;19.48;11.10;;;;;;;8.48;77.92;96370.50;10216485;28;20042;-57
2022/11/23 17:21:48;;;;;;;19.30;12.20;;;;;;;8.48;78.46;96388.59;10249761;28;20042;-57
2022/11/23 17:26:51;;;;;;;32.72;23.70;;;;;;;8.28;79.53;96396.63;10250986;28;20511;-57
2022/11/23 17:31:50;;;;;;;17.92;10.88;;;;;;;8.25;79.28;96390.66;10246233;28;20078;-57
2022/11/23 17:36:50;;;;;;;19.08;12.93;;;;;;;8.36;78.60;96395.66;10250661;28;20078;-57
2022/11/23 17:41:50;;;;;;;29.33;19.90;;;;;;;8.32;78.72;96400.03;10246255;28;20492;-57
2022/11/23 17:46:52;;;;;;;26.08;19.05;;;;;;;8.25;79.26;96411.34;10244349;28;20070;-57
2022/11/23 17:51:50;;;;;;;37.17;22.90;;;;;;;8.16;79.96;96422.66;10245551;28;20452;-58
2022/11/23 17:56:50;;;;;;;66.80;37.42;;;;;;;7.98;81.66;96428.88;10243276;28;20117;-57
2022/11/23 18:01:49;;;;;;;61.00;39.13;;;;;;;7.71;83.71;96426.63;10247324;28;20133;-57
2022/11/23 18:06:48;;;;;;;89.30;58.33;;;;;;;7.47;85.80;96440.66;10247915;28;20114;-57
2022/11/23 18:11:47;;;;;;;83.25;56.38;;;;;;;7.37;85.56;96445.00;10248283;28;20493;-57
2022/11/23 18:16:49;;;;;;;81.93;50.22;;;;;;;7.29;86.43;96451.94;10249874;28;20069;-57
2022/11/23 18:21:48;;;;;;;83.88;53.60;;;;;;;7.20;86.28;96453.75;10248548;28;20554;-57
2022/11/23 18:26:47;;;;;;;68.07;44.95;;;;;;;7.19;86.63;96452.06;10249453;28;20069;-57
2022/11/23 18:31:46;;;;;;;56.25;37.13;;;;;;;7.08;87.00;96456.44;10249825;28;20077;-57
2022/11/23 18:36:45;;;;;;;;;;;;;;;7.00;87.01;96460.78;10249970;28;20081;-57
2022/11/23 18:41:45;;;;;;;107.45;73.68;;;;;;;6.98;86.54;96470.25;10249158;28;20012;-57
2022/11/23 18:46:44;;;;;;;110.45;76.47;;;;;;;6.93;86.97;96464.28;10249321;28;20066;-57
2022/11/23 18:51:43;;;;;;;112.88;77.35;;;;;;;6.89;86.71;96473.78;10248647;28;20485;-57
2022/11/23 18:56:42;;;;;;;97.78;62.55;;;;;;;6.82;87.46;96467.81;10249003;28;20503;-57
2022/11/23 19:01:41;;;;;;;114.15;76.45;;;;;;;6.77;88.08;96474.72;10248153;28;20117;-57
2022/11/23 19:06:40;;;;;;;101.25;67.45;;;;;;;6.85;88.40;96481.56;10248478;28;20026;-57
2022/11/23 19:11:39;;;;;;;65.32;41.13;;;;;;;6.81;88.43;96471.25;10248275;28;20142;-57
2022/11/23 19:16:38;;;;;;;64.53;42.63;;;;;;;6.57;90.32;96463.69;10249146;28;20088;-57
2022/11/23 19:21:38;;;;;;;56.72;35.20;;;;;;;6.52;90.13;96462.88;10248864;28;20050;-58
2022/11/23 19:26:37;;;;;;;53.03;31.77;;;;;;;6.07;91.29;96490.53;10262905;28;20093;-58
2022/11/23 19:31:36;;;;;;;53.08;37.33;;;;;;;5.90;92.38;96480.28;10248380;28;20065;-56
2022/11/23 19:36:35;;;;;;;62.58;42.47;;;;;;;5.87;91.45;96491.47;10247768;28;20042;-58
2022/11/23 19:41:34;;;;;;;62.53;37.85;;;;;;;5.97;91.41;96487.97;10253552;28;20261;-57
2022/11/23 19:46:33;;;;;;;60.13;37.38;;;;;;;6.03;91.30;96481.13;10255997;28;20117;-57
2022/11/23 19:51:32;;;;;;;50.72;32.08;;;;;;;6.08;90.81;96489.69;10254605;28;20041;-57
2022/11/23 19:56:31;;;;;;;105.50;70.43;;;;;;;5.95;92.07;96506.88;10255771;28;20197;-57
2022/11/23 20:01:31;;;;;;;44.55;27.70;;;;;;;5.41;95.36;96506.97;10254839;28;20085;-57
2022/11/23 20:06:30;;;;;;;71.30;49.80;;;;;;;5.34;95.29;96507.84;10267208;28;20066;-56
2022/11/23 20:11:31;;;;;;;50.35;29.63;;;;;;;5.31;95.30;96513.00;10254569;28;20081;-57
2022/11/23 20:16:31;;;;;;;71.25;46.42;;;;;;;5.25;96.17;96524.16;10254294;28;20070;-56
2022/11/23 20:21:32;;;;;;;69.75;45.33;;;;;;;5.34;95.49;96537.03;10253679;28;20554;-56
2022/11/23 20:26:31;;;;;;;65.75;39.42;;;;;;;5.42;94.70;96547.31;10254102;28;20074;-56
2022/11/23 20:31:31;;;;;;;65.97;39.53;;;;;;;5.44;94.68;96540.44;10253649;28;20062;-56
2022/11/23 20:36:32;;;;;;;73.43;42.17;;;;;;;5.47;94.08;96550.72;10254436;28;20074;-56
2022/11/23 20:41:33;;;;;;;58.17;35.05;;;;;;;5.42;93.90;96556.75;10251479;28;20084;-56
2022/11/23 20:46:32;;;;;;;79.97;48.25;;;;;;;5.34;94.42;96559.28;10253404;28;20479;-56
2022/11/23 20:51:31;;;;;;;;;;;;;;;5.33;94.40;96568.72;10253412;28;20456;-58
2022/11/23 20:56:31;;;;;;;81.35;48.63;;;;;;;5.31;94.75;96577.31;10252639;28;19917;-57
2022/11/23 21:01:30;;;;;;;86.57;48.58;;;;;;;5.24;94.73;96562.72;10253174;28;20157;-58
2022/11/23 21:06:29;;;;;;;81.20;45.80;;;;;;;5.20;94.23;96566.13;10251994;28;20081;-57
2022/11/23 21:16:59;;;;;;;109.80;54.25;;;;;;;5.12;95.00;96563.56;10253371;28;20066;-57
2022/11/23 21:22:05;;;;;;;102.03;52.67;;;;;;;5.13;95.24;96573.88;10253177;28;20839;-57
2022/11/23 21:27:06;;;;;;;182.48;98.93;;;;;;;5.11;95.09;96573.00;10253033;28;20061;-57
2022/11/23 21:32:05;;;;;;;165.93;82.07;;;;;;;5.02;95.48;96583.28;10253264;28;20496;-57
2022/11/23 21:37:04;;;;;;;130.20;73.03;;;;;;;4.84;97.73;96584.03;10252540;28;20070;-57
2022/11/23 21:42:04;;;;;;;90.13;48.10;;;;;;;4.62;99.59;96585.72;10252792;28;20042;-57
2022/11/23 21:47:03;;;;;;;131.27;74.45;;;;;;;4.70;98.70;96583.16;10251896;28;20496;-57
2022/11/23 21:52:02;;;;;;;154.27;84.07;;;;;;;4.74;97.95;96589.19;10252143;28;20415;-57
2022/11/23 21:57:01;;;;;;;119.90;69.32;;;;;;;4.72;97.88;96573.75;10251688;28;20030;-57
2022/11/23 22:02:00;;;;;;;111.50;65.45;;;;;;;4.72;97.40;96569.44;10250997;28;20046;-57
2022/11/23 22:06:59;;;;;;;295.65;168.35;;;;;;;4.65;97.43;96566.88;10251541;28;20033;-57
2022/11/23 22:11:58;;;;;;;131.55;76.88;;;;;;;4.63;97.27;96579.69;10252002;28;20073;-57
2022/11/23 22:16:57;;;;;;;163.63;93.30;;;;;;;4.49;97.76;96581.38;10252127;28;20084;-57
2022/11/23 22:21:56;;;;;;;198.88;112.65;;;;;;;4.42;98.15;96588.19;10251246;28;20022;-57
2022/11/23 22:26:55;;;;;;;113.22;61.20;;;;;;;4.29;98.51;96579.56;10251690;28;20070;-57
2022/11/23 22:31:54;;;;;;;94.75;50.88;;;;;;;4.11;97.79;96543.53;10250815;28;20076;-57
2022/11/23 22:36:53;;;;;;;115.00;62.30;;;;;;;4.31;97.81;96586.41;10250964;28;20081;-57
2022/11/23 22:41:52;;;;;;;160.82;36.03;;;;;;;4.08;99.22;96602.59;10250725;28;20115;-55
2022/11/23 22:46:51;;;;;;;250.15;34.00;;;;;;;3.99;98.95;96594.81;10250577;28;20045;-57
2022/11/23 22:51:50;;;;;;;89.78;29.17;;;;;;;3.95;98.75;96599.06;10250744;28;20015;-57
2022/11/23 22:56:49;;;;;;;96.80;34.63;;;;;;;3.87;99.83;96598.16;10249877;28;20034;-56
2022/11/23 23:01:48;;;;;;;170.25;33.60;;;;;;;3.88;99.97;96601.59;10249422;28;20464;-57
2022/11/23 23:06:48;;;;;;;185.77;40.63;;;;;;;3.73;100.00;96610.91;10250052;28;20034;-57
2022/11/23 23:11:47;;;;;;;159.07;37.65;;;;;;;3.70;100.00;96605.72;10247739;28;20065;-57
2022/11/23 23:16:46;;;;;;;102.30;38.63;;;;;;;3.69;100.00;96601.47;10253912;28;20041;-57
2022/11/23 23:21:45;;;;;;;74.60;37.50;;;;;;;3.75;100.00;96600.63;10254937;28;20120;-57
2022/11/23 23:26:44;;;;;;;90.28;43.28;;;;;;;3.80;100.00;96598.94;10256444;28;20034;-57